createdAt,value
2023-04-13T01:17:58.943Z,462
2023-04-13T01:47:49.318Z,451
2023-04-13T01:50:52.228Z,451
2023-04-13T02:17:42.501Z,448
2023-04-13T02:47:53.712Z,445
2023-04-13T03:17:49.788Z,462
2023-04-13T03:48:02.515Z,462
2023-04-13T04:17:49.424Z,465
2023-04-13T05:17:58.702Z,480
2023-04-13T05:48:26.094Z,465
2023-04-13T06:18:00.991Z,465
2023-04-13T07:17:56.301Z,457
2023-04-13T07:47:39.158Z,453
2023-04-13T08:17:49.117Z,454
2023-04-13T08:47:44.672Z,450
2023-04-13T09:17:48.165Z,446
2023-04-13T09:47:44.196Z,445
2023-04-13T11:47:42.959Z,449
2023-04-13T12:17:49.554Z,446
2023-04-13T12:47:42.667Z,445
2023-04-13T13:17:36.011Z,446
2023-04-13T13:47:43.600Z,443
2023-04-13T14:17:35.361Z,441
2023-04-13T14:47:42.309Z,439
2023-04-13T15:17:36.575Z,443
2023-04-13T15:47:36.382Z,447
2023-04-13T16:47:35.636Z,446
2023-04-13T17:17:52.691Z,450
2023-04-13T17:47:41.014Z,454
2023-04-13T18:17:34.740Z,478
2023-04-13T18:47:39.042Z,473
2023-04-13T19:17:34.047Z,492
2023-04-13T19:47:37.822Z,509
2023-04-13T20:17:37.362Z,495
2023-04-13T20:47:33.189Z,527
2023-04-13T21:17:36.684Z,516
2023-04-13T21:47:36.523Z,525
2023-04-13T22:17:38.632Z,538
2023-04-13T22:47:36.285Z,542
2023-04-13T23:17:31.749Z,545
2023-04-13T23:47:35.572Z,522
